McCoy, Colorado
Current Conditions -  °F | °C
As of 5:50 PM on Tuesday 27 Jan 2015 (Local Time) from KEGE Reporting Station
Clear Clear  
Wind Chill: 41°   Ceiling: Unl
Heat Index: 41°   Visibility: 10mi
Dew Point: 27°   Wind: 0mph
Humidity: 57%   Direction: NA
Pressure: 30.24"   Gusts: NA
Location:  39.92°N, 106.73°W
Report Text: KEGE 280050Z 00000KT 10SM SKC 05/M03 A3024
Loading
Personal Weather Stations






























Interactive Weather Map New forecast layout! Learn more

10-Day Weather Forecast

Advertisements
Track Severe Weather on mobile